Green Bank, West Virginia
Current Conditions -  °F | °C
As of 8:51 AM on Monday 20 Oct 2014 (Local Time) from KEKN Reporting Station
Few Clouds Few Clouds  
Wind Chill: 32°   Ceiling: Unl
Heat Index: 32°   Visibility: 10mi
Dew Point: 32°   Wind: 0mph
Humidity: 100%   Direction: NA
Pressure: 30.09"   Gusts: NA
Location:  38.42°N, 79.83°W
Report Text: KEKN 201251Z AUTO 00000KT 10SM FEW002 00/00 A3009 RMK AO2 SLP210 I1001 T00000000 TSNO
Loading
Personal Weather Stations






























Interactive Weather Map
Tropical Storm Tracking
New forecast layout! Learn more

10-Day Weather Forecast

Advertisements
Track Severe Weather on mobile